createdAt,value
2022-11-08T00:00:45.722Z,94.76
2022-11-08T00:03:14.174Z,94.85
2022-11-08T00:06:00.862Z,95.11
2022-11-08T00:08:47.722Z,94.71
2022-11-08T00:11:34.514Z,95.30
2022-11-08T00:14:03.035Z,94.80
2022-11-08T00:16:31.561Z,94.40
2022-11-08T00:18:59.876Z,92.25
2022-11-08T00:21:28.805Z,93.78
2022-11-08T00:23:57.122Z,93.55
2022-11-08T00:26:25.416Z,91.28
2022-11-08T00:28:53.701Z,92.52
2022-11-08T00:31:22.002Z,91.44
2022-11-08T00:33:50.356Z,91.65
2022-11-08T00:36:18.790Z,89.63
2022-11-08T00:38:47.099Z,89.79
2022-11-08T00:41:15.479Z,88.22
2022-11-08T00:43:43.802Z,88.00
2022-11-08T00:46:12.247Z,88.67
2022-11-08T00:48:40.531Z,88.60
2022-11-08T00:51:12.131Z,88.12
2022-11-08T00:53:41.769Z,87.37
2022-11-08T00:56:13.630Z,85.98
2022-11-08T00:58:45.181Z,85.65
2022-11-08T01:01:16.342Z,85.66
2022-11-08T01:03:45.097Z,86.60
2022-11-08T01:06:15.508Z,85.91
2022-11-08T01:08:44.503Z,86.00
2022-11-08T01:11:16.574Z,84.63
2022-11-08T01:13:45.761Z,85.17
2022-11-08T01:16:18.250Z,85.02
2022-11-08T01:18:47.435Z,84.68
2022-11-08T01:21:16.099Z,84.33
2022-11-08T01:23:46.241Z,84.89
2022-11-08T01:26:17.924Z,84.87
2022-11-08T01:28:46.281Z,83.89
2022-11-08T01:31:17.480Z,83.94
2022-11-08T01:33:51.040Z,84.01
2022-11-08T01:36:23.772Z,84.65
2022-11-08T01:38:52.829Z,83.79
2022-11-08T01:41:24.542Z,84.80
2022-11-08T01:43:58.218Z,83.99
2022-11-08T01:46:39.054Z,83.21
2022-11-08T01:49:29.360Z,82.88
2022-11-08T01:52:13.411Z,83.28
2022-11-08T01:55:04.611Z,83.16
2022-11-08T01:57:41.371Z,82.29
2022-11-08T02:00:13.400Z,82.96
2022-11-08T02:02:44.843Z,83.02
2022-11-08T02:05:25.996Z,81.75
2022-11-08T02:08:08.708Z,81.33
2022-11-08T02:10:43.042Z,80.28
2022-11-08T02:13:15.266Z,79.36
2022-11-08T02:15:44.767Z,79.39
2022-11-08T02:18:14.453Z,78.06
2022-11-08T02:20:57.734Z,77.96
2022-11-08T02:23:30.975Z,77.27
2022-11-08T02:25:59.329Z,76.77
2022-11-08T02:28:27.663Z,78.06
2022-11-08T02:30:55.992Z,77.46
2022-11-08T02:33:24.864Z,75.70
2022-11-08T02:35:58.154Z,75.35
2022-11-08T02:38:28.317Z,75.97
2022-11-08T02:40:58.840Z,75.19
2022-11-08T02:43:27.622Z,75.18
2022-11-08T02:45:55.919Z,74.15
2022-11-08T02:48:24.241Z,72.37
2022-11-08T02:50:53.715Z,71.21
2022-11-08T02:53:22.233Z,71.06
2022-11-08T02:55:50.612Z,72.80
2022-11-08T02:58:19.301Z,72.63
2022-11-08T03:00:47.858Z,71.32
2022-11-08T03:03:16.204Z,72.50
2022-11-08T03:05:44.536Z,71.75
2022-11-08T03:08:12.890Z,71.15
2022-11-08T03:10:41.247Z,70.90
2022-11-08T03:13:09.858Z,70.17
2022-11-08T03:15:38.183Z,70.23
2022-11-08T03:18:07.076Z,69.89
2022-11-08T03:20:36.259Z,69.44
2022-11-08T03:23:07.544Z,68.80
2022-11-08T03:25:36.687Z,69.15
2022-11-08T03:28:07.308Z,68.87
2022-11-08T03:30:37.401Z,68.99
2022-11-08T03:33:06.382Z,69.11
2022-11-08T03:35:34.700Z,69.78
2022-11-08T03:38:03.044Z,69.24
2022-11-08T03:40:31.370Z,69.04
2022-11-08T03:42:59.805Z,67.68
2022-11-08T03:45:28.216Z,68.55
2022-11-08T03:47:56.531Z,68.57
2022-11-08T03:50:24.955Z,68.59
2022-11-08T03:52:55.298Z,67.56
2022-11-08T03:55:26.128Z,69.07
2022-11-08T03:57:54.682Z,67.87
2022-11-08T04:00:26.258Z,65.75
2022-11-08T04:02:56.021Z,65.67
2022-11-08T04:05:24.424Z,64.77
2022-11-08T04:07:52.741Z,64.03
2022-11-08T04:10:21.125Z,63.41
2022-11-08T04:13:07.818Z,66.14
2022-11-08T04:15:36.170Z,62.52
2022-11-08T04:18:22.960Z,61.73
2022-11-08T04:21:09.771Z,62.28
2022-11-08T04:23:38.774Z,63.61
2022-11-08T04:26:09.275Z,63.48
2022-11-08T04:28:39.624Z,62.39
2022-11-08T04:31:16.278Z,63.16
2022-11-08T04:33:45.283Z,61.14
2022-11-08T04:36:18.435Z,62.80
2022-11-08T04:38:50.688Z,61.47
2022-11-08T04:41:22.407Z,61.26
2022-11-08T04:43:52.510Z,61.67
2022-11-08T04:46:23.193Z,58.84
2022-11-08T04:48:53.521Z,60.28
2022-11-08T04:51:24.631Z,58.40
2022-11-08T04:53:52.957Z,58.71
2022-11-08T04:56:22.777Z,59.91
2022-11-08T04:58:56.616Z,60.46
2022-11-08T05:01:27.543Z,56.55
2022-11-08T05:03:56.354Z,58.17
2022-11-08T05:06:30.566Z,60.20
2022-11-08T05:09:00.559Z,59.61
2022-11-08T05:11:31.026Z,56.09
2022-11-08T05:13:59.674Z,60.28
2022-11-08T05:16:30.966Z,55.69
2022-11-08T05:19:00.143Z,55.34
2022-11-08T05:22:04.091Z,57.71
2022-11-08T05:24:32.471Z,57.02
2022-11-08T05:27:00.795Z,52.69
2022-11-08T05:29:29.109Z,57.46
2022-11-08T05:31:57.448Z,53.83
2022-11-08T05:34:25.816Z,55.13
2022-11-08T05:36:54.141Z,54.71
2022-11-08T05:39:22.469Z,54.56
2022-11-08T05:41:50.800Z,56.05
2022-11-08T05:44:19.338Z,54.84
2022-11-08T05:46:47.998Z,54.95
2022-11-08T05:49:16.392Z,55.56
2022-11-08T05:51:44.747Z,56.96
2022-11-08T05:54:14.130Z,56.05
2022-11-08T05:56:42.443Z,50.58
2022-11-08T05:59:10.868Z,56.64
2022-11-08T06:01:39.290Z,54.84
2022-11-08T06:04:07.676Z,51.98
2022-11-08T06:06:35.999Z,53.48
2022-11-08T06:09:04.443Z,55.00
2022-11-08T06:11:32.738Z,55.83
2022-11-08T06:14:01.061Z,52.60
2022-11-08T06:16:29.616Z,53.36
2022-11-08T06:19:00.599Z,53.57
2022-11-08T06:21:29.881Z,50.47
2022-11-08T06:23:58.219Z,52.14
2022-11-08T06:26:26.643Z,53.07
2022-11-08T06:28:55.006Z,51.36
2022-11-08T06:31:23.459Z,49.58
2022-11-08T06:33:51.942Z,54.72
2022-11-08T06:36:22.087Z,55.16
2022-11-08T06:38:56.106Z,52.20
2022-11-08T06:41:25.075Z,52.10
2022-11-08T06:43:53.415Z,53.42
2022-11-08T06:46:21.767Z,51.74
2022-11-08T06:48:50.130Z,52.40
2022-11-08T06:51:18.556Z,52.23
2022-11-08T06:53:46.982Z,51.86
2022-11-08T06:56:15.490Z,50.10
2022-11-08T06:58:43.806Z,52.68
2022-11-08T07:01:12.711Z,51.77
2022-11-08T07:03:41.279Z,51.80
2022-11-08T07:06:09.960Z,49.53
2022-11-08T07:08:38.623Z,49.71
2022-11-08T07:11:08.335Z,50.61
2022-11-08T07:13:37.179Z,49.71
2022-11-08T07:16:05.695Z,51.48
2022-11-08T07:18:34.315Z,51.43
2022-11-08T07:21:03.744Z,51.19
2022-11-08T07:23:32.750Z,49.55
2022-11-08T07:26:05.909Z,48.29
2022-11-08T07:28:34.232Z,46.86
2022-11-08T07:31:05.903Z,47.76
2022-11-08T07:33:34.921Z,49.29
2022-11-08T07:36:03.493Z,51.15
2022-11-08T07:38:32.341Z,48.59
2022-11-08T07:41:02.028Z,50.25
2022-11-08T07:43:31.575Z,48.87
2022-11-08T07:46:02.212Z,46.16
2022-11-08T07:48:32.011Z,47.73
2022-11-08T07:51:00.393Z,50.76
2022-11-08T07:53:28.798Z,45.81
2022-11-08T07:55:59.122Z,47.18
2022-11-08T07:58:27.566Z,44.94
2022-11-08T08:01:01.247Z,44.71
2022-11-08T08:03:29.655Z,46.96
2022-11-08T08:06:01.000Z,46.93
2022-11-08T08:08:31.148Z,47.06
2022-11-08T08:11:01.584Z,47.19
2022-11-08T08:13:30.739Z,44.94
2022-11-08T08:16:01.053Z,47.75
2022-11-08T08:18:30.786Z,46.89
2022-11-08T08:20:59.714Z,46.55
2022-11-08T08:23:28.126Z,46.67
2022-11-08T08:25:57.050Z,47.39
2022-11-08T08:28:25.687Z,46.85
2022-11-08T08:30:54.147Z,47.89
2022-11-08T08:33:34.148Z,47.66
2022-11-08T08:36:03.267Z,46.90
2022-11-08T08:38:33.151Z,48.01
2022-11-08T08:41:02.519Z,47.38
2022-11-08T08:43:33.698Z,48.04
2022-11-08T08:46:07.016Z,48.51
2022-11-08T08:48:36.713Z,48.74
2022-11-08T08:51:05.105Z,48.63
2022-11-08T08:53:33.600Z,47.62
2022-11-08T08:56:04.404Z,49.83
2022-11-08T08:58:32.923Z,48.21
2022-11-08T09:03:59.508Z,47.86
2022-11-08T09:06:27.954Z,46.74
2022-11-08T09:08:56.318Z,47.46
2022-11-08T09:11:24.665Z,47.32
2022-11-08T09:13:52.984Z,47.90
2022-11-08T09:16:21.339Z,47.77
2022-11-08T09:18:49.807Z,48.43
2022-11-08T09:21:18.415Z,49.61
2022-11-08T09:23:46.802Z,49.15
2022-11-08T09:26:15.169Z,49.36
2022-11-08T09:28:43.510Z,50.27
2022-11-08T09:31:13.232Z,50.90
2022-11-08T09:33:42.800Z,52.19
2022-11-08T09:36:14.940Z,51.97
2022-11-08T09:38:43.311Z,51.74
2022-11-08T09:41:38.383Z,51.22
2022-11-08T09:44:41.009Z,51.54
2022-11-08T09:47:27.333Z,52.33
2022-11-08T09:50:17.191Z,51.70
2022-11-08T09:52:51.489Z,51.65
2022-11-08T09:55:48.137Z,51.87
2022-11-08T09:58:42.158Z,54.47
2022-11-08T10:01:13.989Z,54.33
2022-11-08T10:03:54.519Z,55.36
2022-11-08T10:06:47.149Z,55.31
2022-11-08T10:09:16.204Z,57.56
2022-11-08T10:12:02.624Z,61.06
2022-11-08T10:15:03.376Z,60.61
2022-11-08T10:18:05.063Z,61.78
2022-11-08T10:21:02.424Z,63.01
2022-11-08T10:23:41.320Z,63.30
2022-11-08T10:26:27.423Z,64.06
2022-11-08T10:29:10.653Z,64.90
2022-11-08T10:31:42.607Z,65.34
2022-11-08T10:34:25.053Z,65.77
2022-11-08T10:37:01.742Z,67.14
2022-11-08T10:39:36.652Z,66.96
2022-11-08T10:42:23.167Z,66.77
2022-11-08T10:44:52.077Z,64.44
2022-11-08T10:47:29.719Z,64.63
2022-11-08T10:50:03.381Z,64.44
2022-11-08T10:52:42.177Z,63.83
2022-11-08T10:55:25.216Z,64.56
2022-11-08T10:57:53.688Z,64.99
2022-11-08T11:00:22.089Z,65.28
2022-11-08T11:03:07.290Z,67.12
2022-11-08T11:05:37.971Z,68.52
2022-11-08T11:08:09.033Z,69.53
2022-11-08T11:10:46.005Z,69.13
2022-11-08T11:15:59.365Z,69.39
2022-11-08T11:18:59.789Z,70.08
2022-11-08T11:21:36.070Z,69.69
2022-11-08T11:24:16.545Z,69.73
2022-11-08T11:26:50.932Z,69.55
2022-11-08T11:29:24.861Z,70.18
2022-11-08T11:31:54.937Z,70.79
2022-11-08T11:34:45.157Z,71.48
2022-11-08T11:37:13.461Z,71.59
2022-11-08T11:39:53.073Z,72.15
2022-11-08T11:42:46.755Z,72.72
2022-11-08T11:45:25.998Z,73.88
2022-11-08T11:47:57.914Z,74.11
2022-11-08T11:50:42.005Z,74.24
2022-11-08T11:53:30.891Z,74.80
2022-11-08T11:56:23.645Z,74.70
2022-11-08T11:59:06.637Z,74.66
2022-11-08T12:01:55.596Z,74.07
2022-11-08T12:05:15.220Z,73.70
2022-11-08T12:08:04.341Z,73.98
2022-11-08T12:11:05.130Z,74.41
2022-11-08T12:13:42.114Z,73.95
2022-11-08T12:16:48.414Z,73.37
2022-11-08T12:19:22.365Z,73.54
2022-11-08T12:22:21.662Z,74.11
2022-11-08T12:25:27.109Z,73.53
2022-11-08T12:28:18.218Z,72.86
2022-11-08T12:31:02.881Z,75.00
2022-11-08T12:33:41.397Z,74.06
2022-11-08T12:36:30.791Z,75.08
2022-11-08T12:39:33.127Z,73.51
2022-11-08T12:42:20.001Z,72.21
2022-11-08T12:45:09.402Z,74.52
2022-11-08T12:47:48.009Z,75.68
2022-11-08T12:50:37.886Z,74.56
2022-11-08T12:53:24.949Z,75.36
2022-11-08T12:55:57.822Z,76.33
2022-11-08T12:58:40.386Z,76.57
2022-11-08T13:01:15.505Z,77.13
2022-11-08T13:03:46.950Z,77.12
2022-11-08T13:06:39.413Z,78.38
2022-11-08T13:09:39.927Z,78.28
2022-11-08T13:12:26.714Z,78.91
2022-11-08T13:14:55.228Z,79.95
2022-11-08T13:17:27.570Z,80.14
2022-11-08T13:20:05.083Z,80.10
2022-11-08T13:22:33.873Z,81.21
2022-11-08T13:25:04.357Z,81.21
2022-11-08T13:27:34.810Z,81.38
2022-11-08T13:30:26.681Z,81.29
2022-11-08T13:32:58.064Z,82.08
2022-11-08T13:35:42.408Z,81.64
2022-11-08T13:38:32.064Z,82.41
2022-11-08T13:41:18.678Z,81.72
2022-11-08T13:43:48.321Z,81.49
2022-11-08T13:46:31.506Z,80.94
2022-11-08T13:49:02.042Z,81.01
2022-11-08T13:51:44.517Z,81.52
2022-11-08T13:54:24.733Z,82.06
2022-11-08T13:56:53.836Z,81.24
2022-11-08T13:59:34.607Z,81.81
2022-11-08T14:02:26.222Z,82.06
2022-11-08T14:04:56.761Z,82.29
2022-11-08T14:07:49.204Z,82.39
2022-11-08T14:10:52.139Z,82.11
2022-11-08T14:13:26.099Z,82.18
2022-11-08T14:16:02.710Z,82.72
2022-11-08T14:18:33.573Z,82.39
2022-11-08T14:21:05.006Z,81.93
2022-11-08T14:23:40.416Z,80.56
2022-11-08T14:26:14.638Z,81.20
2022-11-08T14:28:48.149Z,81.94
2022-11-08T14:31:30.271Z,82.16
2022-11-08T14:33:59.498Z,81.72
2022-11-08T14:36:30.402Z,81.98
2022-11-08T14:39:13.659Z,81.77
2022-11-08T14:41:47.819Z,81.70
2022-11-08T14:44:20.027Z,82.13
2022-11-08T14:46:50.145Z,81.38
2022-11-08T14:49:31.584Z,81.80
2022-11-08T14:52:18.185Z,82.09
2022-11-08T14:54:48.680Z,82.72
2022-11-08T14:57:31.581Z,82.49
2022-11-08T15:00:02.719Z,83.12
2022-11-08T15:02:31.416Z,83.52
2022-11-08T15:04:59.920Z,83.32
2022-11-08T15:07:28.750Z,83.18
2022-11-08T15:09:57.288Z,83.46
2022-11-08T15:12:26.539Z,83.07
2022-11-08T15:15:02.678Z,82.80
2022-11-08T15:17:44.535Z,82.64
2022-11-08T15:20:14.018Z,82.57
2022-11-08T15:22:45.021Z,82.92
2022-11-08T15:25:16.174Z,82.88
2022-11-08T15:27:58.051Z,83.12
2022-11-08T15:30:32.439Z,83.49
2022-11-08T15:33:00.918Z,84.71
2022-11-08T15:35:38.406Z,84.57
2022-11-08T15:38:24.050Z,84.99
2022-11-08T15:40:54.721Z,85.45
2022-11-08T15:43:35.191Z,85.49
2022-11-08T15:46:06.384Z,84.27
2022-11-08T15:48:35.278Z,83.66
2022-11-08T15:51:06.101Z,83.47
2022-11-08T15:53:34.523Z,83.51
2022-11-08T15:56:05.676Z,83.90
2022-11-08T15:58:37.618Z,83.12
2022-11-08T16:01:07.549Z,83.56
2022-11-08T16:03:36.514Z,81.98
2022-11-08T16:06:04.888Z,84.07
2022-11-08T16:08:33.194Z,83.43
2022-11-08T16:11:02.347Z,83.66
2022-11-08T16:13:40.050Z,83.40
2022-11-08T16:16:16.757Z,84.97
2022-11-08T16:18:46.150Z,84.93
2022-11-08T16:21:15.223Z,84.66
2022-11-08T16:23:43.917Z,84.96
2022-11-08T16:26:18.167Z,85.13
2022-11-08T16:28:46.502Z,84.88
2022-11-08T16:31:17.098Z,85.01
2022-11-08T16:33:48.060Z,84.89
2022-11-08T16:36:22.250Z,85.32
2022-11-08T16:38:54.701Z,85.28
2022-11-08T16:41:24.705Z,85.00
2022-11-08T16:43:53.147Z,84.98
2022-11-08T16:46:23.242Z,85.45
2022-11-08T16:48:58.182Z,84.76
2022-11-08T16:51:27.147Z,84.32
2022-11-08T16:53:55.740Z,83.84
2022-11-08T16:56:24.674Z,84.30
2022-11-08T16:58:52.976Z,84.24
2022-11-08T17:01:25.778Z,84.21
2022-11-08T17:03:54.154Z,83.92
2022-11-08T17:06:22.596Z,83.88
2022-11-08T17:08:50.983Z,84.12
2022-11-08T17:11:22.934Z,84.16
2022-11-08T17:13:53.537Z,84.80
2022-11-08T17:16:21.959Z,84.48
2022-11-08T17:18:53.101Z,85.33
2022-11-08T17:21:43.786Z,85.52
2022-11-08T17:24:15.711Z,84.68
2022-11-08T17:26:48.342Z,85.45
2022-11-08T17:29:16.652Z,85.84
2022-11-08T17:31:45.041Z,85.51
2022-11-08T17:34:13.412Z,85.74
2022-11-08T17:36:41.775Z,86.02
2022-11-08T17:39:12.851Z,86.46
2022-11-08T17:41:41.323Z,86.27
2022-11-08T17:44:09.644Z,86.43
2022-11-08T17:46:38.033Z,87.24
2022-11-08T17:49:06.415Z,87.12
2022-11-08T17:51:34.768Z,87.11
2022-11-08T17:54:03.112Z,86.67
2022-11-08T17:56:31.881Z,86.45
2022-11-08T17:59:00.273Z,86.58
2022-11-08T18:01:28.856Z,86.57
2022-11-08T18:03:57.231Z,87.08
2022-11-08T18:06:25.668Z,86.98
2022-11-08T18:08:54.065Z,86.37
2022-11-08T18:11:22.379Z,86.54
2022-11-08T18:13:51.334Z,86.14
2022-11-08T18:16:23.326Z,86.49
2022-11-08T18:18:52.790Z,86.70
2022-11-08T18:21:21.703Z,86.48
2022-11-08T18:23:51.118Z,86.61
2022-11-08T18:26:19.961Z,86.18
2022-11-08T18:28:48.603Z,86.09
2022-11-08T18:31:19.539Z,86.04
2022-11-08T18:33:48.501Z,86.79
2022-11-08T18:36:22.520Z,86.68
2022-11-08T18:38:52.392Z,86.76
2022-11-08T18:41:28.134Z,86.78
2022-11-08T18:43:57.853Z,87.42
2022-11-08T18:46:28.221Z,87.44
2022-11-08T18:48:56.835Z,87.42
2022-11-08T18:51:25.239Z,86.95
2022-11-08T18:53:53.762Z,87.33
2022-11-08T18:56:23.051Z,87.38
2022-11-08T18:58:51.633Z,87.49
2022-11-08T19:01:20.607Z,87.73
2022-11-08T19:03:49.170Z,88.22
2022-11-08T19:06:17.491Z,88.25
2022-11-08T19:08:45.806Z,88.06
2022-11-08T19:11:15.409Z,88.53
2022-11-08T19:13:43.864Z,88.63
2022-11-08T19:16:20.683Z,88.73
2022-11-08T19:18:50.739Z,88.60
2022-11-08T19:21:24.739Z,88.23
2022-11-08T19:23:57.409Z,87.91
2022-11-08T19:26:28.610Z,88.21
2022-11-08T19:28:58.374Z,88.21
2022-11-08T19:31:27.817Z,87.90
2022-11-08T19:33:56.784Z,88.85
2022-11-08T19:36:28.158Z,88.68
2022-11-08T19:38:58.790Z,89.16
2022-11-08T19:41:29.560Z,89.38
2022-11-08T19:43:58.031Z,89.41
2022-11-08T19:46:29.919Z,89.75
2022-11-08T19:49:00.439Z,89.53
2022-11-08T19:51:31.802Z,89.67
2022-11-08T19:54:03.564Z,90.15
2022-11-08T19:59:20.661Z,89.45
2022-11-08T20:01:49.181Z,89.41
2022-11-08T20:04:19.381Z,89.15
2022-11-08T20:06:47.778Z,88.69
2022-11-08T20:09:16.553Z,88.95
2022-11-08T20:11:45.140Z,89.34
2022-11-08T20:14:15.185Z,89.57
2022-11-08T20:16:50.665Z,89.98
2022-11-08T20:19:21.708Z,90.84
2022-11-08T20:21:50.180Z,90.32
2022-11-08T20:24:19.756Z,90.30
2022-11-08T20:26:48.347Z,90.08
2022-11-08T20:40:32.865Z,90.63
2022-11-08T20:43:01.219Z,90.12
2022-11-08T20:45:29.579Z,90.34
2022-11-08T20:47:57.923Z,90.60
2022-11-08T20:50:26.313Z,90.88
2022-11-08T20:52:54.636Z,90.75
2022-11-08T20:55:25.108Z,90.41
2022-11-08T20:57:53.464Z,90.26
2022-11-08T21:00:37.786Z,90.90
2022-11-08T21:03:06.583Z,91.31
2022-11-08T21:05:35.136Z,91.17
2022-11-08T21:08:54.039Z,90.96
2022-11-08T21:10:57.178Z,90.54
2022-11-08T21:13:29.592Z,90.50
2022-11-08T21:16:14.002Z,90.15
2022-11-08T21:18:47.485Z,89.99
2022-11-08T21:21:19.424Z,89.88
2022-11-08T21:23:49.294Z,89.81
2022-11-08T21:26:20.099Z,89.51
2022-11-08T21:28:48.700Z,89.99
2022-11-08T21:31:17.526Z,88.77
2022-11-08T21:33:45.852Z,88.50
2022-11-08T21:36:14.844Z,88.66
2022-11-08T21:38:43.156Z,88.65
2022-11-08T21:41:12.450Z,88.61
2022-11-08T21:43:45.465Z,88.58
2022-11-08T21:46:23.555Z,87.83
2022-11-08T21:49:14.332Z,87.93
2022-11-08T21:51:42.688Z,87.90
2022-11-08T21:54:10.994Z,87.51
2022-11-08T21:56:40.006Z,87.50
2022-11-08T21:59:08.311Z,87.33
2022-11-08T22:01:36.651Z,87.38
2022-11-08T22:04:05.046Z,87.92
2022-11-08T22:06:34.897Z,87.76
2022-11-08T22:09:04.676Z,87.89
2022-11-08T22:11:32.956Z,87.91
2022-11-08T22:14:01.274Z,88.18
2022-11-08T22:16:29.577Z,88.27
2022-11-08T22:19:04.576Z,88.25
2022-11-08T22:21:41.588Z,88.72
2022-11-08T22:24:18.966Z,88.99
2022-11-08T22:26:48.369Z,89.35
2022-11-08T22:29:17.454Z,89.15
2022-11-08T22:31:46.249Z,89.30
2022-11-08T22:34:16.060Z,89.55
2022-11-08T22:36:45.776Z,89.67
2022-11-08T22:39:19.318Z,89.79
2022-11-08T22:41:50.897Z,89.86
2022-11-08T22:44:20.206Z,89.93
2022-11-08T22:46:49.443Z,89.90
2022-11-08T22:49:18.118Z,90.29
2022-11-08T22:51:46.513Z,90.19
2022-11-08T22:54:14.848Z,90.45
2022-11-08T22:56:43.250Z,90.47
2022-11-08T22:59:11.614Z,90.41
2022-11-08T23:01:39.877Z,88.95
2022-11-08T23:04:12.009Z,88.66
2022-11-08T23:06:41.469Z,87.71
2022-11-08T23:09:10.129Z,89.01
2022-11-08T23:11:56.617Z,89.82
2022-11-08T23:14:43.212Z,88.42
2022-11-08T23:17:11.511Z,89.11
2022-11-08T23:19:58.067Z,88.72
2022-11-08T23:22:44.512Z,88.74
2022-11-08T23:25:12.885Z,87.85
2022-11-08T23:27:59.549Z,88.80
2022-11-08T23:30:46.092Z,89.58
2022-11-08T23:33:14.389Z,89.51
2022-11-08T23:36:02.541Z,88.67
2022-11-08T23:38:30.984Z,88.94
2022-11-08T23:41:25.277Z,89.32
2022-11-08T23:44:12.110Z,88.35
2022-11-08T23:46:41.451Z,89.29
2022-11-08T23:49:09.749Z,88.74
2022-11-08T23:51:38.103Z,89.11
2022-11-08T23:54:06.598Z,88.54
2022-11-08T23:56:34.952Z,88.79
2022-11-08T23:59:03.304Z,89.13
